createdAt,value
2017-01-09T00:01:03.894Z,0
2017-01-09T00:02:26.486Z,0
2017-01-09T00:03:48.936Z,0
2017-01-09T00:05:11.014Z,0
2017-01-09T00:06:33.091Z,0
2017-01-09T00:07:55.936Z,0
2017-01-09T00:09:18.428Z,0
2017-01-09T00:10:40.094Z,0
2017-01-09T00:12:02.624Z,0
2017-01-09T00:13:25.467Z,0
2017-01-09T00:14:48.303Z,0
2017-01-09T00:16:10.065Z,0
2017-01-09T00:17:32.195Z,0
2017-01-09T00:18:54.673Z,0
2017-01-09T00:20:17.233Z,0
2017-01-09T00:21:39.284Z,0
2017-01-09T00:23:01.385Z,0
2017-01-09T00:24:24.262Z,0
2017-01-09T00:25:46.766Z,0
2017-01-09T00:27:08.819Z,0
2017-01-09T00:28:31.270Z,0
2017-01-09T00:29:52.955Z,0
2017-01-09T00:31:14.816Z,0
2017-01-09T00:32:37.284Z,0
2017-01-09T00:33:59.345Z,0
2017-01-09T00:35:21.006Z,0
2017-01-09T00:36:43.507Z,0
2017-01-09T00:38:06.384Z,0
2017-01-09T00:39:28.985Z,0
2017-01-09T00:40:51.094Z,0
2017-01-09T00:42:13.616Z,0
2017-01-09T00:43:36.065Z,0
2017-01-09T00:44:57.863Z,0
2017-01-09T00:46:19.535Z,0
2017-01-09T00:47:42.086Z,0
2017-01-09T00:49:04.622Z,0
2017-01-09T00:50:26.698Z,0
2017-01-09T00:51:49.554Z,0
2017-01-09T00:53:12.164Z,0
2017-01-09T00:54:34.222Z,0
2017-01-09T00:55:56.290Z,0
2017-01-09T00:57:18.897Z,0
2017-01-09T00:58:41.350Z,0
2017-01-09T01:00:03.800Z,0
2017-01-09T01:01:25.526Z,0
2017-01-09T01:02:47.583Z,0
2017-01-09T01:04:10.127Z,0
2017-01-09T01:05:31.876Z,0
2017-01-09T01:06:53.929Z,0
2017-01-09T01:08:15.604Z,0
2017-01-09T01:09:37.786Z,0
2017-01-09T01:10:59.042Z,0
2017-01-09T01:12:20.704Z,0
2017-01-09T01:13:43.185Z,0
2017-01-09T01:15:04.852Z,0
2017-01-09T01:16:27.746Z,0
2017-01-09T01:17:49.834Z,0
2017-01-09T01:19:11.563Z,0
2017-01-09T01:20:33.741Z,0
2017-01-09T01:21:55.815Z,0
2017-01-09T01:23:17.586Z,0
2017-01-09T01:24:40.056Z,0
2017-01-09T01:26:02.203Z,0
2017-01-09T01:27:24.342Z,0
2017-01-09T01:28:46.405Z,0
2017-01-09T01:30:08.922Z,0
2017-01-09T01:31:30.979Z,0
2017-01-09T01:32:53.425Z,0
2017-01-09T01:34:15.064Z,0
2017-01-09T01:35:36.726Z,0
2017-01-09T01:36:59.205Z,0
2017-01-09T01:38:21.277Z,0
2017-01-09T01:39:43.344Z,0
2017-01-09T01:41:05.821Z,0
2017-01-09T01:42:27.145Z,0
2017-01-09T01:43:49.225Z,0
2017-01-09T01:45:10.969Z,0
2017-01-09T01:46:33.813Z,0
2017-01-09T01:47:55.866Z,0
2017-01-09T01:49:17.536Z,0
2017-01-09T01:50:39.980Z,0
2017-01-09T01:52:02.437Z,0
2017-01-09T01:53:24.885Z,0
2017-01-09T01:54:47.350Z,0
2017-01-09T01:56:10.184Z,0
2017-01-09T01:57:32.335Z,0
2017-01-09T01:58:54.496Z,0
2017-01-09T02:00:16.561Z,0
2017-01-09T02:01:39.061Z,0
2017-01-09T02:03:00.715Z,0
2017-01-09T02:04:22.787Z,0
2017-01-09T02:05:44.861Z,0
2017-01-09T02:07:06.506Z,0
2017-01-09T02:08:28.956Z,0
2017-01-09T02:09:51.083Z,0
2017-01-09T02:11:13.948Z,0
2017-01-09T02:12:36.840Z,0
2017-01-09T02:13:59.734Z,0
2017-01-09T02:15:21.506Z,0
2017-01-09T02:16:43.584Z,0
2017-01-09T02:18:05.720Z,0
2017-01-09T02:19:28.580Z,0
2017-01-09T02:20:49.843Z,0
2017-01-09T02:22:10.714Z,0
2017-01-09T02:23:33.186Z,0
2017-01-09T02:24:55.296Z,0
2017-01-09T02:26:17.331Z,0
2017-01-09T02:27:38.664Z,0
2017-01-09T02:29:01.133Z,0
2017-01-09T02:30:24.041Z,0
2017-01-09T02:31:46.186Z,0
2017-01-09T02:33:08.766Z,0
2017-01-09T02:34:31.216Z,0
2017-01-09T02:35:53.268Z,0
2017-01-09T02:37:15.346Z,0
2017-01-09T02:38:37.395Z,0
2017-01-09T02:40:00.674Z,0
2017-01-09T02:41:22.395Z,0
2017-01-09T02:42:44.869Z,0
2017-01-09T02:44:07.309Z,0
2017-01-09T02:45:29.375Z,0
2017-01-09T02:46:51.829Z,0
2017-01-09T02:48:14.309Z,0
2017-01-09T02:49:36.792Z,0
2017-01-09T02:50:59.405Z,0
2017-01-09T02:52:22.264Z,0
2017-01-09T02:53:43.926Z,0
2017-01-09T02:55:05.584Z,0
2017-01-09T02:56:28.123Z,0
2017-01-09T02:57:50.210Z,0
2017-01-09T02:59:12.668Z,0
2017-01-09T03:00:35.159Z,0
2017-01-09T03:01:58.082Z,0
2017-01-09T03:03:19.552Z,0
2017-01-09T03:04:42.010Z,0
2017-01-09T03:06:03.679Z,0
2017-01-09T03:07:25.768Z,0
2017-01-09T03:08:48.254Z,0
2017-01-09T03:10:10.724Z,0
2017-01-09T03:11:33.299Z,0
2017-01-09T03:12:56.146Z,0
2017-01-09T03:14:18.202Z,0
2017-01-09T03:15:40.324Z,0
2017-01-09T03:17:03.240Z,0
2017-01-09T03:18:25.430Z,0
2017-01-09T03:19:48.365Z,0
2017-01-09T03:21:10.512Z,0
2017-01-09T03:22:32.547Z,0
2017-01-09T03:23:55.451Z,0
2017-01-09T03:25:17.107Z,0
2017-01-09T03:26:38.947Z,0
2017-01-09T03:28:01.013Z,0
2017-01-09T03:29:23.473Z,0
2017-01-09T03:30:46.403Z,0
2017-01-09T03:32:08.949Z,0
2017-01-09T03:33:31.008Z,0
2017-01-09T03:34:53.464Z,0
2017-01-09T03:36:15.931Z,0
2017-01-09T03:37:37.999Z,0
2017-01-09T03:38:59.390Z,0
2017-01-09T03:40:21.876Z,0
2017-01-09T03:41:43.939Z,0
2017-01-09T03:43:06.213Z,0
2017-01-09T03:44:28.282Z,0
2017-01-09T03:45:49.534Z,0
2017-01-09T03:47:12.377Z,0
2017-01-09T03:48:34.854Z,0
2017-01-09T03:49:56.511Z,0
2017-01-09T03:51:18.630Z,0
2017-01-09T03:52:40.701Z,0
2017-01-09T03:54:02.805Z,0
2017-01-09T03:55:24.868Z,0
2017-01-09T03:56:47.345Z,0
2017-01-09T03:58:09.402Z,0
2017-01-09T03:59:31.478Z,0
2017-01-09T04:00:54.131Z,0
2017-01-09T04:02:16.254Z,0
2017-01-09T04:03:38.374Z,0
2017-01-09T04:05:00.071Z,0
2017-01-09T04:06:21.854Z,0
2017-01-09T04:07:43.512Z,0
2017-01-09T04:09:06.382Z,0
2017-01-09T04:10:28.459Z,0
2017-01-09T04:11:50.912Z,0
2017-01-09T04:13:13.504Z,0
2017-01-09T04:14:35.963Z,0
2017-01-09T04:15:57.632Z,0
2017-01-09T04:17:19.421Z,0
2017-01-09T04:18:41.987Z,0
2017-01-09T04:20:04.033Z,0
2017-01-09T04:21:25.684Z,0
2017-01-09T04:22:47.796Z,0
2017-01-09T04:24:10.655Z,0
2017-01-09T04:25:32.730Z,0
2017-01-09T04:26:55.209Z,0
2017-01-09T04:28:16.914Z,0
2017-01-09T04:29:39.961Z,0
2017-01-09T04:31:02.073Z,0
2017-01-09T04:32:24.552Z,0
2017-01-09T04:33:46.637Z,0
2017-01-09T04:35:08.698Z,0
2017-01-09T04:36:31.185Z,0
2017-01-09T04:37:52.953Z,0
2017-01-09T04:39:14.624Z,0
2017-01-09T04:40:36.805Z,0
2017-01-09T04:42:30.905Z,0
2017-01-09T04:43:53.000Z,0
2017-01-09T04:45:15.125Z,0
2017-01-09T04:46:36.796Z,0
2017-01-09T04:47:58.831Z,0
2017-01-09T04:49:20.501Z,0
2017-01-09T04:50:43.001Z,0
2017-01-09T04:52:05.042Z,0
2017-01-09T04:53:27.506Z,0
2017-01-09T04:54:50.575Z,0
2017-01-09T04:56:44.133Z,0
2017-01-09T04:58:06.192Z,0
2017-01-09T04:59:29.072Z,0
2017-01-09T05:00:51.535Z,0
2017-01-09T05:02:13.407Z,0
2017-01-09T05:03:35.127Z,0
2017-01-09T05:04:57.655Z,0
2017-01-09T05:06:19.723Z,0
2017-01-09T05:07:42.220Z,0
2017-01-09T05:09:03.535Z,0
2017-01-09T05:10:25.597Z,0
2017-01-09T05:11:48.558Z,0
2017-01-09T05:13:11.041Z,0
2017-01-09T05:14:33.515Z,0
2017-01-09T05:15:56.182Z,0
2017-01-09T05:17:19.185Z,0
2017-01-09T05:18:41.246Z,0
2017-01-09T05:20:03.774Z,0
2017-01-09T05:21:25.833Z,0
2017-01-09T05:22:47.904Z,0
2017-01-09T05:24:10.382Z,0
2017-01-09T05:25:31.664Z,0
2017-01-09T05:26:53.805Z,0
2017-01-09T05:28:16.317Z,0
2017-01-09T05:29:39.269Z,0
2017-01-09T05:31:01.719Z,0
2017-01-09T05:32:23.781Z,0
2017-01-09T05:33:45.489Z,0
2017-01-09T05:35:07.655Z,0
2017-01-09T05:36:29.791Z,0
2017-01-09T05:37:51.879Z,0
2017-01-09T05:39:14.387Z,0
2017-01-09T05:40:36.925Z,0
2017-01-09T05:41:59.379Z,0
2017-01-09T05:43:21.444Z,0
2017-01-09T05:44:43.929Z,0
2017-01-09T05:46:06.406Z,0
2017-01-09T05:47:28.914Z,0
2017-01-09T05:48:50.988Z,0
2017-01-09T05:50:13.061Z,0
2017-01-09T05:51:35.145Z,0
2017-01-09T05:52:57.236Z,0
2017-01-09T05:54:19.297Z,0
2017-01-09T05:55:40.590Z,0
2017-01-09T05:57:03.448Z,0
2017-01-09T05:58:25.516Z,0
2017-01-09T05:59:47.975Z,0
2017-01-09T06:01:10.076Z,0
2017-01-09T06:02:32.526Z,0
2017-01-09T06:03:55.399Z,0
2017-01-09T06:05:17.474Z,0
2017-01-09T06:06:39.137Z,0
2017-01-09T06:08:01.649Z,0
2017-01-09T06:09:24.206Z,0
2017-01-09T06:10:46.738Z,0
2017-01-09T06:12:08.866Z,0
2017-01-09T06:13:31.753Z,0
2017-01-09T06:14:53.445Z,0
2017-01-09T06:16:14.697Z,0
2017-01-09T06:17:36.385Z,0
2017-01-09T06:18:58.913Z,0
2017-01-09T06:20:21.758Z,0
2017-01-09T06:21:44.654Z,0
2017-01-09T06:23:06.803Z,0
2017-01-09T06:24:28.450Z,0
2017-01-09T06:25:50.892Z,0
2017-01-09T06:27:14.107Z,0
2017-01-09T06:28:36.309Z,0
2017-01-09T06:29:58.134Z,0
2017-01-09T06:31:19.916Z,0
2017-01-09T06:32:42.398Z,0
2017-01-09T06:34:04.070Z,0
2017-01-09T06:35:26.586Z,0
2017-01-09T06:36:49.026Z,0
2017-01-09T06:38:11.089Z,0
2017-01-09T06:39:33.153Z,0
2017-01-09T06:40:55.305Z,0
2017-01-09T06:42:18.169Z,0
2017-01-09T06:43:39.836Z,0
2017-01-09T06:45:01.907Z,0
2017-01-09T06:46:24.476Z,0
2017-01-09T06:47:46.522Z,0
2017-01-09T06:49:08.590Z,0
2017-01-09T06:50:31.128Z,0
2017-01-09T06:51:53.598Z,0
2017-01-09T06:53:15.275Z,0
2017-01-09T06:54:37.753Z,0
2017-01-09T06:56:00.204Z,0
2017-01-09T06:57:22.303Z,0
2017-01-09T06:58:44.404Z,0
2017-01-09T07:00:06.052Z,0
2017-01-09T07:01:28.197Z,0
2017-01-09T07:02:50.744Z,0
2017-01-09T07:04:12.865Z,0
2017-01-09T07:05:34.529Z,0
2017-01-09T07:06:57.513Z,0
2017-01-09T07:08:19.965Z,0
2017-01-09T07:09:42.167Z,0
2017-01-09T07:11:04.636Z,0
2017-01-09T07:12:26.826Z,0
2017-01-09T07:13:48.526Z,0
2017-01-09T07:15:10.303Z,0
2017-01-09T07:16:32.366Z,0
2017-01-09T07:17:55.256Z,0
2017-01-09T07:19:17.345Z,0
2017-01-09T07:20:39.836Z,0
2017-01-09T07:22:01.945Z,0
2017-01-09T07:23:22.804Z,0
2017-01-09T07:24:45.356Z,0
2017-01-09T07:26:07.828Z,0
2017-01-09T07:27:29.506Z,0
2017-01-09T07:28:52.063Z,0
2017-01-09T07:30:14.135Z,0
2017-01-09T07:31:35.406Z,0
2017-01-09T07:32:57.842Z,0
2017-01-09T07:34:20.804Z,0
2017-01-09T07:35:43.756Z,0
2017-01-09T07:37:05.823Z,0
2017-01-09T07:38:27.882Z,5
2017-01-09T07:39:49.945Z,5
2017-01-09T07:41:12.922Z,5
2017-01-09T07:42:34.965Z,5
2017-01-09T07:43:57.424Z,5
2017-01-09T07:45:20.008Z,5
2017-01-09T07:46:42.842Z,5
2017-01-09T07:48:05.311Z,5
2017-01-09T07:49:28.267Z,5
2017-01-09T07:50:49.995Z,5
2017-01-09T07:52:12.045Z,5
2017-01-09T07:53:34.906Z,5
2017-01-09T07:54:57.885Z,5
2017-01-09T07:56:19.155Z,5
2017-01-09T07:57:41.270Z,5
2017-01-09T07:59:03.316Z,5
2017-01-09T08:00:25.378Z,10
2017-01-09T08:01:47.444Z,10
2017-01-09T08:03:09.665Z,10
2017-01-09T08:04:31.762Z,10
2017-01-09T08:05:54.621Z,10
2017-01-09T08:07:17.072Z,10
2017-01-09T08:08:39.153Z,10
2017-01-09T08:10:01.255Z,10
2017-01-09T08:11:23.624Z,10
2017-01-09T08:12:46.072Z,10
2017-01-09T08:14:08.208Z,15
2017-01-09T08:15:30.933Z,15
2017-01-09T08:16:52.984Z,15
2017-01-09T08:18:14.795Z,15
2017-01-09T08:19:36.885Z,15
2017-01-09T08:20:59.827Z,15
2017-01-09T08:22:22.713Z,15
2017-01-09T08:23:45.217Z,15
2017-01-09T08:25:07.270Z,15
2017-01-09T08:26:29.387Z,15
2017-01-09T08:27:51.542Z,15
2017-01-09T08:29:14.002Z,15
2017-01-09T08:30:36.874Z,20
2017-01-09T08:31:58.982Z,20
2017-01-09T08:33:21.454Z,20
2017-01-09T08:34:44.457Z,20
2017-01-09T08:36:06.556Z,25
2017-01-09T08:37:28.622Z,30
2017-01-09T08:38:50.671Z,30
2017-01-09T08:40:12.356Z,30
2017-01-09T08:41:34.852Z,30
2017-01-09T08:42:57.463Z,30
2017-01-09T08:44:19.924Z,35
2017-01-09T08:45:42.433Z,35
2017-01-09T08:47:04.633Z,35
2017-01-09T08:48:27.092Z,40
2017-01-09T08:49:49.551Z,45
2017-01-09T08:51:11.659Z,45
2017-01-09T08:52:33.606Z,45
2017-01-09T08:53:56.081Z,45
2017-01-09T08:55:18.948Z,45
2017-01-09T08:56:40.399Z,45
2017-01-09T08:58:02.528Z,45
2017-01-09T08:59:24.230Z,45
2017-01-09T09:00:46.705Z,50
2017-01-09T09:02:09.203Z,50
2017-01-09T09:03:31.680Z,50
2017-01-09T09:04:53.798Z,50
2017-01-09T09:06:15.883Z,50
2017-01-09T09:07:38.379Z,50
2017-01-09T09:09:00.905Z,50
2017-01-09T09:10:22.992Z,50
2017-01-09T09:11:45.557Z,50
2017-01-09T09:13:07.873Z,50
2017-01-09T09:14:30.354Z,45
2017-01-09T09:15:52.123Z,45
2017-01-09T09:17:13.784Z,45
2017-01-09T09:18:36.704Z,45
2017-01-09T09:19:59.571Z,50
2017-01-09T09:21:22.523Z,50
2017-01-09T09:22:44.819Z,50
2017-01-09T09:24:07.266Z,50
2017-01-09T09:25:28.912Z,55
2017-01-09T09:26:51.864Z,50
2017-01-09T09:28:14.014Z,50
2017-01-09T09:29:36.544Z,45
2017-01-09T09:30:59.021Z,45
2017-01-09T09:32:21.506Z,45
2017-01-09T09:33:43.201Z,45
2017-01-09T09:35:04.864Z,45
2017-01-09T09:36:27.317Z,45
2017-01-09T09:37:49.792Z,45
2017-01-09T09:39:11.863Z,45
2017-01-09T09:40:34.744Z,50
2017-01-09T09:41:57.718Z,50
2017-01-09T09:43:20.612Z,50
2017-01-09T09:44:43.085Z,50
2017-01-09T09:46:06.034Z,50
2017-01-09T09:47:28.502Z,50
2017-01-09T09:48:50.542Z,50
2017-01-09T09:50:13.134Z,50
2017-01-09T09:51:35.218Z,50
2017-01-09T09:52:57.833Z,50
2017-01-09T09:54:19.495Z,50
2017-01-09T09:55:41.997Z,60
2017-01-09T09:57:03.663Z,75
2017-01-09T09:58:26.221Z,90
2017-01-09T09:59:48.505Z,90
2017-01-09T10:01:10.614Z,90
2017-01-09T10:02:32.692Z,90
2017-01-09T10:03:54.817Z,85
2017-01-09T10:05:17.270Z,85
2017-01-09T10:06:40.334Z,90
2017-01-09T10:08:02.801Z,90
2017-01-09T10:09:24.982Z,95
2017-01-09T10:10:47.944Z,100
2017-01-09T10:12:10.372Z,110
2017-01-09T10:13:32.945Z,110
2017-01-09T10:14:55.406Z,105
2017-01-09T10:16:18.285Z,105
2017-01-09T10:17:40.361Z,100
2017-01-09T10:19:02.525Z,100
2017-01-09T10:20:24.622Z,100
2017-01-09T10:21:46.757Z,100
2017-01-09T10:23:09.623Z,100
2017-01-09T10:24:31.713Z,100
2017-01-09T10:25:54.545Z,100
2017-01-09T10:27:17.613Z,100
2017-01-09T10:28:39.663Z,100
2017-01-09T10:30:02.203Z,105
2017-01-09T10:31:24.776Z,105
2017-01-09T10:32:46.845Z,105
2017-01-09T10:34:08.897Z,110
2017-01-09T10:35:30.957Z,110
2017-01-09T10:36:53.440Z,105
2017-01-09T10:38:15.921Z,110
2017-01-09T10:39:37.981Z,105
2017-01-09T10:41:00.506Z,110
2017-01-09T10:42:23.106Z,115
2017-01-09T10:43:46.012Z,110
2017-01-09T10:45:08.475Z,110
2017-01-09T10:46:30.566Z,110
2017-01-09T10:47:52.625Z,110
2017-01-09T10:49:14.341Z,110
2017-01-09T10:50:36.005Z,110
2017-01-09T10:51:58.770Z,110
2017-01-09T10:53:20.827Z,110
2017-01-09T10:54:42.524Z,105
2017-01-09T10:56:04.353Z,105
2017-01-09T10:57:26.424Z,105
2017-01-09T10:58:48.515Z,110
2017-01-09T11:00:10.985Z,105
2017-01-09T11:01:33.190Z,105
2017-01-09T11:02:55.765Z,110
2017-01-09T11:04:18.652Z,115
2017-01-09T11:05:40.701Z,115
2017-01-09T11:07:03.304Z,120
2017-01-09T11:08:25.014Z,115
2017-01-09T11:09:48.016Z,115
2017-01-09T11:11:10.536Z,115
2017-01-09T11:12:32.698Z,110
2017-01-09T11:13:54.763Z,110
2017-01-09T11:15:17.376Z,105
2017-01-09T11:16:40.109Z,110
2017-01-09T11:18:02.573Z,115
2017-01-09T11:19:24.647Z,110
2017-01-09T11:20:47.157Z,115
2017-01-09T11:22:09.234Z,115
2017-01-09T11:23:31.765Z,120
2017-01-09T11:24:53.824Z,120
2017-01-09T11:26:16.397Z,120
2017-01-09T11:27:38.922Z,120
2017-01-09T11:29:00.620Z,115
2017-01-09T11:30:22.288Z,110
2017-01-09T11:31:45.153Z,115
2017-01-09T11:33:08.086Z,110
2017-01-09T11:34:30.207Z,110
2017-01-09T11:35:52.272Z,105
2017-01-09T11:37:13.956Z,110
2017-01-09T11:38:36.407Z,115
2017-01-09T11:39:58.538Z,115
2017-01-09T11:41:20.225Z,120
2017-01-09T11:42:42.361Z,125
2017-01-09T11:44:04.814Z,125
2017-01-09T11:45:27.680Z,120
2017-01-09T11:46:49.415Z,115
2017-01-09T11:48:11.062Z,115
2017-01-09T11:49:33.594Z,120
2017-01-09T11:50:54.615Z,120
2017-01-09T11:52:17.107Z,115
2017-01-09T11:53:39.175Z,115
2017-01-09T11:55:02.044Z,115
2017-01-09T11:56:24.524Z,115
2017-01-09T11:57:47.398Z,115
2017-01-09T11:59:09.473Z,120
2017-01-09T12:00:32.006Z,115
2017-01-09T12:01:54.094Z,115
2017-01-09T12:03:16.550Z,110
2017-01-09T12:04:39.219Z,110
2017-01-09T12:06:01.694Z,110
2017-01-09T12:07:23.759Z,110
2017-01-09T12:08:46.303Z,110
2017-01-09T12:10:08.396Z,110
2017-01-09T12:11:30.973Z,115
2017-01-09T12:12:53.821Z,115
2017-01-09T12:14:16.374Z,120
2017-01-09T12:15:38.907Z,115
2017-01-09T12:17:01.600Z,115
2017-01-09T12:18:24.572Z,115
2017-01-09T12:19:46.647Z,115
2017-01-09T12:21:09.282Z,115
2017-01-09T12:22:30.544Z,110
2017-01-09T12:23:53.151Z,110
2017-01-09T12:25:16.029Z,105
2017-01-09T12:26:38.891Z,100
2017-01-09T12:28:00.962Z,95
2017-01-09T12:29:23.428Z,95
2017-01-09T12:30:45.959Z,90
2017-01-09T12:32:08.424Z,95
2017-01-09T12:33:30.939Z,95
2017-01-09T12:34:53.991Z,105
2017-01-09T12:36:16.116Z,105
2017-01-09T12:37:38.699Z,115
2017-01-09T12:39:01.189Z,125
2017-01-09T12:40:23.794Z,125
2017-01-09T12:41:45.863Z,130
2017-01-09T12:43:08.384Z,130
2017-01-09T12:44:30.911Z,135
2017-01-09T12:45:53.376Z,135
2017-01-09T12:47:15.928Z,140
2017-01-09T12:48:38.397Z,140
2017-01-09T12:50:00.100Z,140
2017-01-09T12:51:21.419Z,145
2017-01-09T12:52:43.880Z,145
2017-01-09T12:54:06.741Z,150
2017-01-09T12:55:29.232Z,145
2017-01-09T12:56:51.766Z,145
2017-01-09T12:58:13.824Z,145
2017-01-09T12:59:36.721Z,145
2017-01-09T13:00:59.185Z,140
2017-01-09T13:02:21.250Z,135
2017-01-09T13:03:42.971Z,135
2017-01-09T13:05:05.051Z,135
2017-01-09T13:06:27.153Z,135
2017-01-09T13:07:49.651Z,130
2017-01-09T13:09:11.721Z,130
2017-01-09T13:10:33.392Z,125
2017-01-09T13:11:55.473Z,125
2017-01-09T13:13:17.557Z,125
2017-01-09T13:14:40.012Z,125
2017-01-09T13:16:01.804Z,125
2017-01-09T13:17:24.423Z,125
2017-01-09T13:18:46.892Z,120
2017-01-09T13:20:09.399Z,115
2017-01-09T13:21:31.079Z,115
2017-01-09T13:22:53.172Z,110
2017-01-09T13:24:15.243Z,110
2017-01-09T13:25:38.092Z,105
2017-01-09T13:27:00.655Z,105
2017-01-09T13:28:23.210Z,100
2017-01-09T13:29:45.359Z,95
2017-01-09T13:31:07.844Z,95
2017-01-09T13:32:29.105Z,95
2017-01-09T13:33:50.933Z,95
2017-01-09T13:35:13.008Z,95
2017-01-09T13:36:35.930Z,90
2017-01-09T13:37:57.993Z,90
2017-01-09T13:39:20.865Z,90
2017-01-09T13:40:43.748Z,90
2017-01-09T13:42:05.851Z,90
2017-01-09T13:43:28.721Z,90
2017-01-09T13:44:50.401Z,90
2017-01-09T13:46:12.872Z,90
2017-01-09T13:47:34.922Z,90
2017-01-09T13:48:57.373Z,85
2017-01-09T13:50:19.848Z,85
2017-01-09T13:51:42.531Z,85
2017-01-09T13:53:04.308Z,85
2017-01-09T13:54:26.888Z,85
2017-01-09T13:55:48.952Z,80
2017-01-09T13:57:11.852Z,80
2017-01-09T13:58:33.925Z,75
2017-01-09T13:59:55.992Z,70
2017-01-09T14:01:18.875Z,65
2017-01-09T14:02:41.787Z,60
2017-01-09T14:04:04.639Z,60
2017-01-09T14:05:26.716Z,55
2017-01-09T14:06:49.582Z,55
2017-01-09T14:08:11.743Z,55
2017-01-09T14:09:34.639Z,50
2017-01-09T14:10:57.106Z,50
2017-01-09T14:12:20.071Z,45
2017-01-09T14:13:42.932Z,40
2017-01-09T14:15:05.824Z,40
2017-01-09T14:16:28.352Z,35
2017-01-09T14:17:50.833Z,30
2017-01-09T14:19:13.438Z,25
2017-01-09T14:20:35.897Z,25
2017-01-09T14:21:57.628Z,25
2017-01-09T14:23:19.696Z,25
2017-01-09T14:24:42.655Z,25
2017-01-09T14:26:05.182Z,25
2017-01-09T14:27:26.889Z,30
2017-01-09T14:28:48.573Z,30
2017-01-09T14:30:11.214Z,25
2017-01-09T14:31:33.772Z,20
2017-01-09T14:32:56.325Z,20
2017-01-09T14:34:18.373Z,15
2017-01-09T14:35:41.274Z,20
2017-01-09T14:37:03.757Z,20
2017-01-09T14:38:26.217Z,25
2017-01-09T14:39:48.663Z,25
2017-01-09T14:41:10.353Z,20
2017-01-09T14:42:32.415Z,20
2017-01-09T14:43:55.282Z,15
2017-01-09T14:45:17.781Z,15
2017-01-09T14:46:39.863Z,15
2017-01-09T14:48:01.544Z,15
2017-01-09T14:49:24.414Z,15
2017-01-09T14:50:46.572Z,15
2017-01-09T14:52:08.691Z,15
2017-01-09T14:53:30.795Z,10
2017-01-09T14:54:53.688Z,10
2017-01-09T14:56:16.240Z,10
2017-01-09T14:57:38.711Z,10
2017-01-09T14:59:01.296Z,10
2017-01-09T15:00:24.326Z,10
2017-01-09T15:01:47.220Z,10
2017-01-09T15:03:09.428Z,10
2017-01-09T15:04:31.904Z,10
2017-01-09T15:05:54.393Z,10
2017-01-09T15:07:16.115Z,5
2017-01-09T15:08:38.593Z,5
2017-01-09T15:10:01.459Z,5
2017-01-09T15:11:24.357Z,10
2017-01-09T15:12:47.264Z,10
2017-01-09T15:14:09.738Z,10
2017-01-09T15:15:32.340Z,5
2017-01-09T15:16:54.950Z,5
2017-01-09T15:18:17.921Z,5
2017-01-09T15:19:40.803Z,5
2017-01-09T15:21:03.688Z,5
2017-01-09T15:22:25.808Z,5
2017-01-09T15:23:48.674Z,5
2017-01-09T15:25:10.356Z,5
2017-01-09T15:26:32.425Z,5
2017-01-09T15:27:55.314Z,0
2017-01-09T15:29:18.187Z,0
2017-01-09T15:30:40.277Z,0
2017-01-09T15:32:02.775Z,0
2017-01-09T15:33:24.967Z,0
2017-01-09T15:34:47.508Z,0
2017-01-09T15:36:09.977Z,0
2017-01-09T15:37:32.579Z,0
2017-01-09T15:38:55.039Z,0
2017-01-09T15:40:18.036Z,0
2017-01-09T15:41:40.946Z,0
2017-01-09T15:43:03.509Z,0
2017-01-09T15:44:25.995Z,0
2017-01-09T15:45:48.496Z,0
2017-01-09T15:47:10.645Z,0
2017-01-09T15:48:33.104Z,0
2017-01-09T15:49:56.004Z,0
2017-01-09T15:51:18.487Z,0
2017-01-09T15:52:41.364Z,0
2017-01-09T15:54:03.842Z,0
2017-01-09T15:55:26.391Z,0
2017-01-09T15:56:48.475Z,0
2017-01-09T15:58:11.044Z,0
2017-01-09T15:59:33.969Z,0
2017-01-09T16:00:56.850Z,0
2017-01-09T16:02:19.304Z,0
2017-01-09T16:03:41.437Z,0
2017-01-09T16:05:04.290Z,0
2017-01-09T16:06:26.764Z,0
2017-01-09T16:07:49.321Z,0
2017-01-09T16:09:11.402Z,0
2017-01-09T16:10:33.889Z,0
2017-01-09T16:11:56.389Z,0
2017-01-09T16:13:18.074Z,0
2017-01-09T16:14:40.968Z,0
2017-01-09T16:16:03.929Z,0
2017-01-09T16:17:26.107Z,0
2017-01-09T16:18:49.008Z,0
2017-01-09T16:20:11.528Z,0
2017-01-09T16:21:33.608Z,0
2017-01-09T16:22:56.080Z,0
2017-01-09T16:24:18.621Z,0
2017-01-09T16:25:41.122Z,0
2017-01-09T16:27:03.995Z,0
2017-01-09T16:28:26.080Z,0
2017-01-09T16:29:48.968Z,0
2017-01-09T16:31:11.850Z,0
2017-01-09T16:32:34.327Z,0
2017-01-09T16:33:56.820Z,0
2017-01-09T16:35:19.312Z,0
2017-01-09T16:36:41.470Z,0
2017-01-09T16:38:03.586Z,0
2017-01-09T16:39:26.506Z,0
2017-01-09T16:40:49.391Z,0
2017-01-09T16:42:11.279Z,0
2017-01-09T16:43:33.141Z,0
2017-01-09T16:44:54.644Z,0
2017-01-09T16:46:16.511Z,0
2017-01-09T16:47:38.803Z,0
2017-01-09T16:49:01.111Z,0
2017-01-09T16:50:23.405Z,0
2017-01-09T16:51:45.740Z,0
2017-01-09T16:53:08.001Z,0
2017-01-09T16:54:29.878Z,0
2017-01-09T16:55:52.150Z,0
2017-01-09T16:57:14.111Z,0
2017-01-09T16:58:36.134Z,0
2017-01-09T16:59:58.032Z,0
2017-01-09T17:01:19.919Z,0
2017-01-09T17:02:41.942Z,0
2017-01-09T17:04:04.213Z,0
2017-01-09T17:05:26.133Z,0
2017-01-09T17:06:48.501Z,0
2017-01-09T17:08:10.404Z,0
2017-01-09T17:09:32.684Z,0
2017-01-09T17:10:54.958Z,0
2017-01-09T17:12:16.963Z,0
2017-01-09T17:13:39.318Z,0
2017-01-09T17:15:00.821Z,0
2017-01-09T17:16:22.763Z,0
2017-01-09T17:17:45.042Z,0
2017-01-09T17:19:07.343Z,0
2017-01-09T17:20:30.303Z,0
2017-01-09T17:21:52.184Z,0
2017-01-09T17:23:14.543Z,0
2017-01-09T17:24:36.413Z,0
2017-01-09T17:25:58.290Z,0
2017-01-09T17:27:20.171Z,0
2017-01-09T17:28:42.052Z,0
2017-01-09T17:30:03.978Z,0
2017-01-09T17:31:26.345Z,0
2017-01-09T17:32:48.636Z,0
2017-01-09T17:34:10.127Z,0
2017-01-09T17:35:32.474Z,0
2017-01-09T17:36:54.493Z,0
2017-01-09T17:38:16.368Z,0
2017-01-09T17:39:38.784Z,0
2017-01-09T17:41:01.051Z,0
2017-01-09T17:42:22.955Z,0
2017-01-09T17:43:45.352Z,0
2017-01-09T17:45:07.253Z,0
2017-01-09T17:46:29.144Z,0
2017-01-09T17:47:51.517Z,0
2017-01-09T17:49:13.831Z,0
2017-01-09T17:50:35.342Z,0
2017-01-09T17:51:57.639Z,0
2017-01-09T17:53:20.017Z,0
2017-01-09T17:54:42.497Z,0
2017-01-09T17:56:04.815Z,0
2017-01-09T17:57:27.094Z,0
2017-01-09T17:58:49.686Z,0
2017-01-09T18:00:11.655Z,0
2017-01-09T18:01:33.932Z,0
2017-01-09T18:02:56.255Z,0
2017-01-09T18:04:18.570Z,0
2017-01-09T18:05:40.869Z,0
2017-01-09T18:07:03.146Z,0
2017-01-09T18:08:25.019Z,0
2017-01-09T18:09:46.952Z,0
2017-01-09T18:11:09.288Z,0
2017-01-09T18:12:31.604Z,0
2017-01-09T18:13:54.006Z,0
2017-01-09T18:15:15.891Z,0
2017-01-09T18:16:38.172Z,0
2017-01-09T18:18:00.458Z,0
2017-01-09T18:19:22.744Z,0
2017-01-09T18:20:45.069Z,0
2017-01-09T18:22:07.356Z,0
2017-01-09T18:23:29.670Z,0
2017-01-09T18:24:51.957Z,0
2017-01-09T18:26:14.340Z,0
2017-01-09T18:27:36.648Z,0
2017-01-09T18:28:58.979Z,0
2017-01-09T18:30:21.265Z,0
2017-01-09T18:31:43.662Z,0
2017-01-09T18:33:05.969Z,0
2017-01-09T18:34:28.252Z,0
2017-01-09T18:35:50.556Z,0
2017-01-09T18:37:12.899Z,0
2017-01-09T18:38:34.775Z,0
2017-01-09T18:39:57.067Z,0
2017-01-09T18:41:19.357Z,0
2017-01-09T18:42:41.673Z,0
2017-01-09T18:44:03.575Z,0
2017-01-09T18:45:25.944Z,0
2017-01-09T18:46:48.365Z,0
2017-01-09T18:48:10.644Z,0
2017-01-09T18:49:33.775Z,0
2017-01-09T18:50:56.663Z,0
2017-01-09T18:52:19.799Z,0
2017-01-09T18:53:42.806Z,0
2017-01-09T18:55:05.655Z,0
2017-01-09T18:56:28.555Z,0
2017-01-09T18:57:51.518Z,0
2017-01-09T18:59:14.543Z,0
2017-01-09T19:00:37.172Z,0
2017-01-09T19:01:59.797Z,0
2017-01-09T19:03:22.812Z,0
2017-01-09T19:04:45.303Z,0
2017-01-09T19:06:08.235Z,0
2017-01-09T19:07:30.733Z,0
2017-01-09T19:08:53.246Z,0
2017-01-09T19:10:16.218Z,0
2017-01-09T19:11:39.288Z,0
2017-01-09T19:13:01.793Z,0
2017-01-09T19:14:24.666Z,0
2017-01-09T19:15:46.975Z,0
2017-01-09T19:17:09.265Z,0
2017-01-09T19:18:31.579Z,0
2017-01-09T19:19:53.508Z,0
2017-01-09T19:21:16.054Z,0
2017-01-09T19:22:38.375Z,0
2017-01-09T19:24:00.704Z,0
2017-01-09T19:25:23.080Z,0
2017-01-09T19:26:45.538Z,0
2017-01-09T19:28:08.018Z,0
2017-01-09T19:29:30.321Z,0
2017-01-09T19:30:52.695Z,0
2017-01-09T19:32:14.995Z,0
2017-01-09T19:33:37.417Z,0
2017-01-09T19:34:59.231Z,0
2017-01-09T19:36:22.190Z,0
2017-01-09T19:37:44.655Z,0
2017-01-09T19:39:06.863Z,0
2017-01-09T19:40:29.489Z,0
2017-01-09T19:41:53.150Z,0
2017-01-09T19:43:19.699Z,0
2017-01-09T19:44:47.707Z,0
2017-01-09T19:46:13.537Z,0
2017-01-09T19:47:40.946Z,0
2017-01-09T19:49:04.797Z,0
2017-01-09T19:50:32.799Z,0
2017-01-09T19:51:58.186Z,0
2017-01-09T19:53:21.111Z,0
2017-01-09T19:54:46.315Z,0
2017-01-09T19:56:09.151Z,0